Time;durP1;ratioP1;P1;durP2;ratioP2;P2;SDS_P1;SDS_P2;PMS_P1;PMS_P2;Temp;Humidity;BMP_temperature;BMP_pressure;BME280_temperature;BME280_humidity;BME280_pressure;Samples;Min_cycle;Max_cycle;Signal;HPM_P1;HPM_P2
2021/06/13 00:01:22;;;;;;;7.85;5.78;;;18.40;1.00;;;;;;5051064;28;20036;-80
2021/06/13 00:03:48;;;;;;;6.38;5.70;;;18.50;1.00;;;;;;5044494;28;20022;-82
2021/06/13 00:06:14;;;;;;;6.25;5.63;;;18.60;1.00;;;;;;5047450;28;20021;-77
2021/06/13 00:08:40;;;;;;;6.07;5.57;;;18.60;99.90;;;;;;5055113;28;20071;-75
2021/06/13 00:11:06;;;;;;;6.22;5.63;;;18.50;99.90;;;;;;5054464;28;20037;-76
2021/06/13 00:13:32;;;;;;;8.10;5.55;;;18.60;99.90;;;;;;5048572;28;20044;-78
2021/06/13 00:15:57;;;;;;;6.40;5.22;;;18.60;99.90;;;;;;5032384;28;20021;-78
2021/06/13 00:18:24;;;;;;;6.72;6.03;;;18.60;98.60;;;;;;5045245;28;20017;-78
2021/06/13 00:20:51;;;;;;;6.53;5.82;;;18.50;99.90;;;;;;5048408;28;20037;-78
2021/06/13 00:23:17;;;;;;;6.93;6.22;;;18.60;99.90;;;;;;5057073;28;20032;-78
2021/06/13 00:25:42;;;;;;;5.53;5.03;;;18.60;99.90;;;;;;5053968;28;20041;-78
2021/06/13 00:28:08;;;;;;;8.38;6.53;;;18.60;1.00;;;;;;5050569;28;20037;-77
2021/06/13 00:30:34;;;;;;;5.32;4.82;;;18.50;99.90;;;;;;5049351;28;20029;-78
2021/06/13 00:33:00;;;;;;;6.28;5.68;;;18.50;99.90;;;;;;5043602;28;20044;-77
2021/06/13 00:35:25;;;;;;;5.93;5.28;;;18.50;1.00;;;;;;5041220;28;20042;-76
2021/06/13 00:37:51;;;;;;;10.15;5.60;;;18.50;99.90;;;;;;5043096;28;20072;-76
2021/06/13 00:40:19;;;;;;;8.15;5.97;;;18.60;12.90;;;;;;5054637;28;20036;-76
2021/06/13 00:42:45;;;;;;;5.95;5.45;;;18.60;1.00;;;;;;5052051;28;20029;-77
2021/06/13 00:45:12;;;;;;;7.80;5.15;;;18.60;21.80;;;;;;5051829;28;20032;-77
2021/06/13 00:47:39;;;;;;;9.00;5.75;;;18.60;1.00;;;;;;5055163;28;20049;-78
2021/06/13 00:50:07;;;;;;;5.55;5.05;;;18.60;1.00;;;;;;5057775;28;20020;-76
2021/06/13 00:52:33;;;;;;;6.63;6.03;;;18.60;99.90;;;;;;5057734;28;20029;-75
2021/06/13 00:54:59;;;;;;;6.70;5.45;;;18.60;99.90;;;;;;5051290;28;20036;-76
2021/06/13 00:57:24;;;;;;;6.18;5.30;;;18.60;1.00;;;;;;5061343;28;20029;-76
2021/06/13 00:59:50;;;;;;;5.97;5.20;;;18.50;18.90;;;;;;5056396;28;20029;-75
2021/06/13 01:02:16;;;;;;;6.72;5.15;;;18.50;1.00;;;;;;5057859;28;20018;-76
2021/06/13 01:04:41;;;;;;;5.90;5.40;;;18.40;94.20;;;;;;5054085;28;20029;-77
2021/06/13 01:07:28;;;;;;;6.50;5.90;;;18.40;99.90;;;;;;5052705;28;20033;-77
2021/06/13 01:10:01;;;;;;;6.32;5.75;;;18.40;99.90;;;;;;5039740;28;20488;-79
2021/06/13 01:12:35;;;;;;;6.15;5.50;;;18.30;1.00;;;;;;5040130;28;20116;-79
2021/06/13 01:15:04;;;;;;;10.32;5.07;;;18.20;1.00;;;;;;5048819;28;20017;-78
2021/06/13 01:17:32;;;;;;;7.10;5.40;;;18.10;10.80;;;;;;5041454;28;20368;-77
2021/06/13 01:20:07;;;;;;;6.57;5.90;;;18.00;99.90;;;;;;5040466;28;20080;-78
2021/06/13 01:23:11;;;;;;;10.63;5.55;;;18.00;99.90;;;;;;5041320;28;20119;-78
2021/06/13 01:26:05;;;;;;;5.70;5.10;;;17.90;99.90;;;;;;5046798;28;20343;-77
2021/06/13 01:28:49;;;;;;;7.38;5.45;;;17.90;99.90;;;;;;5034502;28;20026;-77
2021/06/13 01:31:17;;;;;;;5.65;5.13;;;17.90;99.90;;;;;;5040009;28;20025;-77
2021/06/13 01:33:47;;;;;;;8.73;4.95;;;17.90;99.90;;;;;;5029322;28;20034;-79
2021/06/13 01:36:13;;;;;;;6.03;4.72;;;17.90;99.90;;;;;;5039550;28;20021;-78
2021/06/13 01:38:40;;;;;;;7.32;5.30;;;17.80;99.90;;;;;;5049479;28;20139;-77
2021/06/13 01:41:09;;;;;;;7.43;5.13;;;17.80;99.90;;;;;;5054776;28;20076;-78
2021/06/13 01:43:36;;;;;;;6.15;5.55;;;17.80;99.90;;;;;;5038507;28;20025;-78
2021/06/13 01:46:03;;;;;;;6.53;4.93;;;17.70;99.90;;;;;;5046347;28;20104;-78
2021/06/13 01:48:30;;;;;;;6.70;4.80;;;17.70;99.90;;;;;;5069318;28;20040;-78
2021/06/13 01:51:00;;;;;;;6.38;5.05;;;17.70;1.00;;;;;;5064761;28;20032;-76
2021/06/13 01:53:27;;;;;;;6.45;5.30;;;17.70;1.00;;;;;;5062701;28;20135;-78
2021/06/13 01:55:54;;;;;;;10.00;4.88;;;17.70;7.60;;;;;;5045331;28;20088;-77
2021/06/13 01:58:21;;;;;;;7.50;5.18;;;17.70;1.00;;;;;;5050694;28;20021;-77
2021/06/13 02:00:49;;;;;;;5.75;5.07;;;17.70;5.60;;;;;;5064144;28;20028;-78
2021/06/13 02:03:17;;;;;;;6.07;5.32;;;17.60;99.90;;;;;;5059685;28;20017;-77
2021/06/13 02:05:47;;;;;;;5.82;5.32;;;17.70;99.90;;;;;;5042492;28;20021;-78
2021/06/13 02:08:14;;;;;;;5.95;5.20;;;17.60;99.90;;;;;;5040114;28;20018;-76
2021/06/13 02:10:41;;;;;;;7.18;5.47;;;17.60;99.90;;;;;;5062803;28;20143;-79
2021/06/13 02:13:08;;;;;;;5.40;4.90;;;17.60;1.00;;;;;;5066847;28;20025;-78
2021/06/13 02:15:36;;;;;;;6.70;5.03;;;17.50;1.00;;;;;;5050719;28;20037;-76
2021/06/13 02:18:04;;;;;;;5.68;5.18;;;17.60;1.00;;;;;;5058348;28;20017;-77
2021/06/13 02:20:31;;;;;;;7.32;6.63;;;17.60;1.00;;;;;;5065154;28;20388;-78
2021/06/13 02:22:58;;;;;;;6.25;5.65;;;17.70;99.90;;;;;;5062349;28;20022;-78
2021/06/13 02:25:24;;;;;;;5.78;5.20;;;17.80;1.00;;;;;;5049409;28;20068;-77
2021/06/13 02:27:57;;;;;;;7.45;5.68;;;17.80;99.90;;;;;;5052250;28;20028;-78
2021/06/13 02:30:26;;;;;;;5.88;5.07;;;17.80;99.90;;;;;;5047092;28;20489;-77
2021/06/13 02:32:53;;;;;;;6.00;5.35;;;17.80;99.90;;;;;;5047463;28;20036;-77
2021/06/13 02:35:19;;;;;;;8.55;6.10;;;17.80;99.90;;;;;;5063325;28;20055;-77
2021/06/13 02:37:45;;;;;;;7.15;5.40;;;17.80;99.90;;;;;;5056453;28;20025;-78
2021/06/13 02:40:12;;;;;;;8.85;5.03;;;17.80;99.90;;;;;;5040084;28;20055;-77
2021/06/13 02:42:38;;;;;;;5.47;4.97;;;17.80;99.90;;;;;;5042561;28;20024;-77
2021/06/13 02:45:16;;;;;;;6.20;5.35;;;17.90;99.90;;;;;;5048817;28;20120;-77
2021/06/13 02:47:43;;;;;;;5.57;5.05;;;17.90;99.90;;;;;;5046059;28;20029;-78
2021/06/13 02:50:10;;;;;;;6.07;5.20;;;17.80;99.90;;;;;;5070249;28;20089;-77
2021/06/13 02:52:41;;;;;;;6.93;5.35;;;17.80;99.90;;;;;;5060449;28;20029;-79
2021/06/13 02:55:11;;;;;;;6.45;5.20;;;17.80;99.90;;;;;;5042743;28;20021;-79
2021/06/13 02:57:41;;;;;;;6.60;5.07;;;17.80;1.00;;;;;;5042493;28;20021;-77
2021/06/13 03:00:09;;;;;;;5.63;4.13;;;17.80;99.90;;;;;;5021577;28;20066;-76
2021/06/13 03:02:36;;;;;;;6.68;5.25;;;17.80;70.20;;;;;;5025426;28;20026;-78
2021/06/13 03:05:05;;;;;;;7.20;4.95;;;17.80;1.00;;;;;;5042767;28;20038;-75
2021/06/13 03:07:31;;;;;;;7.18;4.13;;;17.80;20.70;;;;;;5026669;28;20120;-77
2021/06/13 03:09:57;;;;;;;6.40;4.70;;;17.80;1.00;;;;;;5069997;28;20033;-77
2021/06/13 03:12:24;;;;;;;7.40;4.68;;;17.80;1.00;;;;;;5058970;28;20036;-77
2021/06/13 03:14:51;;;;;;;7.93;4.65;;;17.70;99.90;;;;;;5033880;28;20017;-77
2021/06/13 03:17:20;;;;;;;7.22;5.20;;;17.70;1.00;;;;;;5054956;28;20099;-78
2021/06/13 03:19:47;;;;;;;4.85;4.25;;;17.70;1.00;;;;;;5060042;28;20044;-77
2021/06/13 03:22:14;;;;;;;7.28;5.50;;;17.70;1.00;;;;;;5043062;28;20060;-79
2021/06/13 03:24:41;;;;;;;5.95;4.57;;;17.70;8.10;;;;;;5034096;28;20025;-77
2021/06/13 03:27:08;;;;;;;5.25;4.13;;;17.60;17.10;;;;;;5032687;28;20029;-77
2021/06/13 03:29:37;;;;;;;5.60;4.35;;;17.70;1.00;;;;;;5034824;28;20026;-77
2021/06/13 03:32:04;;;;;;;10.00;4.40;;;17.70;1.00;;;;;;5043887;28;20109;-78
2021/06/13 03:34:31;;;;;;;8.68;5.07;;;17.60;1.00;;;;;;5055188;28;20025;-78
2021/06/13 03:36:57;;;;;;;7.68;4.78;;;17.60;1.00;;;;;;5046961;28;20017;-78
2021/06/13 03:39:23;;;;;;;6.72;4.97;;;17.60;1.00;;;;;;5035217;28;20017;-76
2021/06/13 03:41:50;;;;;;;7.13;4.57;;;17.50;1.00;;;;;;5040743;28;20098;-77
2021/06/13 03:44:16;;;;;;;5.55;4.82;;;17.40;99.90;;;;;;5054815;28;20083;-77
2021/06/13 03:46:42;;;;;;;5.85;4.65;;;17.50;43.60;;;;;;5049826;28;20052;-79
2021/06/13 03:49:10;;;;;;;7.32;4.35;;;17.60;1.00;;;;;;5044531;28;20029;-74
2021/06/13 03:51:36;;;;;;;4.72;4.22;;;17.70;99.90;;;;;;5059918;28;20044;-77
2021/06/13 03:54:02;;;;;;;6.43;4.45;;;17.70;92.80;;;;;;5076753;28;20025;-76
2021/06/13 03:56:31;;;;;;;6.32;4.15;;;17.90;1.00;;;;;;5077029;28;20025;-77
2021/06/13 03:58:58;;;;;;;4.50;3.92;;;17.60;99.90;;;;;;5045942;28;20033;-78
2021/06/13 04:01:24;;;;;;;4.80;3.78;;;17.60;1.00;;;;;;5040220;28;20128;-79
2021/06/13 04:03:51;;;;;;;7.53;4.68;;;17.50;14.10;;;;;;5041518;28;20033;-79
2021/06/13 04:06:23;;;;;;;7.07;3.95;;;17.60;1.00;;;;;;5039003;28;20026;-78
2021/06/13 04:08:53;;;;;;;7.47;4.07;;;17.60;99.90;;;;;;5019818;28;20493;-78
2021/06/13 04:11:21;;;;;;;4.95;3.72;;;17.80;99.90;;;;;;5019464;28;20030;-77
2021/06/13 04:13:47;;;;;;;7.38;4.25;;;17.70;99.90;;;;;;5038804;28;20167;-78
2021/06/13 04:16:16;;;;;;;6.28;3.92;;;17.80;1.00;;;;;;5038596;28;20026;-78
2021/06/13 04:18:42;;;;;;;4.57;3.80;;;17.80;1.00;;;;;;5039851;28;20469;-77
2021/06/13 04:21:16;;;;;;;5.95;3.85;;;17.90;99.90;;;;;;5055490;28;20033;-78
2021/06/13 04:23:45;;;;;;;5.28;3.40;;;17.90;99.90;;;;;;5060049;28;20519;-77
2021/06/13 04:26:18;;;;;;;8.90;4.82;;;18.00;99.90;;;;;;5037322;28;20026;-78
2021/06/13 04:28:45;;;;;;;4.65;3.35;;;18.10;99.90;;;;;;5039676;28;20021;-78
2021/06/13 04:31:13;;;;;;;8.70;4.55;;;18.00;28.00;;;;;;5054798;28;20387;-78
2021/06/13 04:33:41;;;;;;;5.93;3.72;;;18.10;1.00;;;;;;5065232;28;20029;-78
2021/06/13 04:36:07;;;;;;;5.85;3.25;;;18.00;1.00;;;;;;5048106;28;20523;-79
2021/06/13 04:38:33;;;;;;;7.50;3.75;;;18.20;99.90;;;;;;5052178;28;20112;-76
2021/06/13 04:41:00;;;;;;;4.53;3.45;;;18.20;1.00;;;;;;5065638;28;20037;-76
2021/06/13 04:43:25;;;;;;;4.95;4.15;;;18.70;99.90;;;;;;5070067;28;20089;-77
2021/06/13 04:45:51;;;;;;;5.72;3.60;;;18.80;1.00;;;;;;5049778;28;20035;-77
2021/06/13 04:48:19;;;;;;;5.18;3.72;;;19.30;29.60;;;;;;5047951;28;20036;-77
2021/06/13 04:50:45;;;;;;;6.47;4.07;;;19.40;99.90;;;;;;5059281;28;20040;-76
2021/06/13 04:53:47;;;;;;;7.18;3.95;;;19.00;1.00;;;;;;5070493;28;20047;-76
2021/06/13 04:56:20;;;;;;;4.95;3.30;;;20.00;6.70;;;;;;5059632;28;20029;-77
2021/06/13 04:58:46;;;;;;;4.22;2.92;;;20.10;1.00;;;;;;5054121;28;20020;-77
2021/06/13 05:01:11;;;;;;;6.30;3.70;;;20.80;99.90;;;;;;5063056;28;20053;-76
2021/06/13 05:03:37;;;;;;;6.70;3.58;;;20.20;99.90;;;;;;5074369;28;20033;-76
2021/06/13 05:06:03;;;;;;;5.22;3.13;;;21.30;1.00;;;;;;5062920;28;20064;-77
2021/06/13 05:08:29;;;;;;;6.75;3.45;;;20.90;99.90;;;;;;5047532;28;20080;-78
2021/06/13 05:10:56;;;;;;;4.75;2.90;;;20.60;99.90;;;;;;5046795;28;20029;-77
2021/06/13 05:13:22;;;;;;;5.32;3.28;;;20.70;99.90;;;;;;5058599;28;20032;-78
2021/06/13 05:15:48;;;;;;;5.28;3.03;;;21.10;99.90;;;;;;5051062;28;20076;-78
2021/06/13 05:18:14;;;;;;;4.60;2.72;;;21.20;99.90;;;;;;5039375;28;20029;-79
2021/06/13 05:20:41;;;;;;;6.20;2.95;;;21.50;99.90;;;;;;5042356;28;20433;-78
2021/06/13 05:23:07;;;;;;;4.38;3.42;;;21.20;89.30;;;;;;5062392;28;20060;-78
2021/06/13 05:25:35;;;;;;;4.13;2.60;;;22.10;42.70;;;;;;5052761;28;20030;-78
2021/06/13 05:28:02;;;;;;;3.95;2.33;;;22.50;99.90;;;;;;5036762;28;20057;-78
2021/06/13 05:30:30;;;;;;;3.28;2.22;;;22.30;99.90;;;;;;5041166;28;20030;-78
2021/06/13 05:32:57;;;;;;;4.68;2.47;;;23.70;99.90;;;;;;5068744;28;20094;-78
2021/06/13 05:35:24;;;;;;;4.40;2.22;;;24.30;99.90;;;;;;5066210;28;20044;-77
2021/06/13 05:37:50;;;;;;;7.53;2.50;;;24.70;99.90;;;;;;5054142;28;20033;-76
2021/06/13 05:40:20;;;;;;;3.92;2.13;;;24.90;99.90;;;;;;5061484;28;20033;-77
2021/06/13 05:42:46;;;;;;;3.58;2.33;;;24.30;99.90;;;;;;5076823;28;20021;-76
2021/06/13 05:45:13;;;;;;;6.00;2.50;;;23.40;99.90;;;;;;5065889;28;20515;-79
2021/06/13 05:47:39;;;;;;;2.63;1.95;;;22.70;99.90;;;;;;5061174;28;20025;-78
2021/06/13 05:50:08;;;;;;;4.07;2.17;;;22.50;99.90;;;;;;5040416;28;20104;-77
2021/06/13 05:52:33;;;;;;;5.18;2.60;;;24.00;99.90;;;;;;5039557;28;20132;-78
2021/06/13 05:54:59;;;;;;;3.90;2.45;;;23.80;99.90;;;;;;5055204;28;20109;-78
2021/06/13 05:57:34;;;;;;;2.63;1.88;;;23.80;99.90;;;;;;5060853;28;20469;-78
2021/06/13 06:00:09;;;;;;;8.63;3.15;;;23.50;99.90;;;;;;5046353;28;20510;-78
2021/06/13 06:02:36;;;;;;;4.07;2.30;;;24.30;97.90;;;;;;5041008;28;20029;-78
2021/06/13 06:05:02;;;;;;;7.28;2.97;;;24.10;96.70;;;;;;5039491;28;20025;-78
2021/06/13 06:07:28;;;;;;;4.28;2.72;;;24.10;95.40;;;;;;5039089;28;20167;-78
2021/06/13 06:09:54;;;;;;;4.65;2.63;;;23.80;94.00;;;;;;5052952;28;20049;-79
2021/06/13 06:12:19;;;;;;;7.10;2.42;;;23.90;92.00;;;;;;5059355;28;20025;-79
2021/06/13 06:14:46;;;;;;;6.38;2.35;;;23.50;95.10;;;;;;5047488;28;20053;-78
2021/06/13 06:17:12;;;;;;;2.72;2.08;;;22.90;94.10;;;;;;5039384;28;20021;-77
2021/06/13 06:19:39;;;;;;;2.67;1.85;;;23.20;97.00;;;;;;5047544;28;20036;-77
2021/06/13 06:22:05;;;;;;;4.25;2.80;;;23.30;99.90;;;;;;5057504;28;20040;-78
2021/06/13 06:24:31;;;;;;;4.80;2.58;;;23.00;97.40;;;;;;5057151;28;20079;-78
2021/06/13 06:26:57;;;;;;;4.90;2.50;;;23.10;97.80;;;;;;5037020;28;20552;-78
2021/06/13 06:29:23;;;;;;;4.30;2.63;;;21.60;99.90;;;;;;5043925;28;20037;-78
2021/06/13 06:31:49;;;;;;;6.38;2.75;;;20.80;99.90;;;;;;5057463;28;20020;-79
2021/06/13 06:34:15;;;;;;;4.75;3.03;;;20.10;99.90;;;;;;5054204;28;20157;-77
2021/06/13 06:36:41;;;;;;;6.53;2.78;;;19.90;99.90;;;;;;5040260;28;20392;-78
2021/06/13 06:39:07;;;;;;;4.25;2.60;;;20.00;99.90;;;;;;5042250;28;20279;-80
2021/06/13 06:41:36;;;;;;;3.83;2.92;;;19.20;99.90;;;;;;5060077;28;20543;-78
2021/06/13 06:44:02;;;;;;;9.55;3.80;;;19.60;99.90;;;;;;5055767;28;20117;-78
2021/06/13 06:46:28;;;;;;;5.25;2.83;;;19.50;99.90;;;;;;5037596;28;20032;-78
2021/06/13 06:48:54;;;;;;;4.18;3.17;;;19.10;99.90;;;;;;5037770;28;20025;-79
2021/06/13 06:51:19;;;;;;;6.30;2.78;;;18.90;99.90;;;;;;5063034;28;20096;-78
2021/06/13 06:53:45;;;;;;;4.13;2.80;;;19.40;99.90;;;;;;5058234;28;20029;-79
2021/06/13 06:56:10;;;;;;;6.32;2.80;;;19.30;99.90;;;;;;5040475;28;20055;-78
2021/06/13 06:58:36;;;;;;;4.22;2.58;;;19.60;99.90;;;;;;5037479;28;20091;-78
2021/06/13 07:01:01;;;;;;;4.55;3.00;;;20.00;99.90;;;;;;5053035;28;20025;-78
2021/06/13 07:03:27;;;;;;;6.95;2.92;;;20.10;99.90;;;;;;5057150;28;20405;-79
2021/06/13 07:05:53;;;;;;;4.85;2.58;;;20.10;99.90;;;;;;5055874;28;20033;-76
2021/06/13 07:08:18;;;;;;;5.28;2.95;;;20.10;99.90;;;;;;5058143;28;20025;-78
2021/06/13 07:10:44;;;;;;;4.30;2.65;;;20.30;99.90;;;;;;5046382;28;20373;-79
2021/06/13 07:13:10;;;;;;;4.57;2.70;;;20.50;99.90;;;;;;5038039;28;20029;-78
2021/06/13 07:15:36;;;;;;;5.40;3.05;;;20.50;99.90;;;;;;5055757;28;20025;-79
2021/06/13 07:18:01;;;;;;;4.70;2.60;;;20.30;99.90;;;;;;5058899;28;20049;-77
2021/06/13 07:20:27;;;;;;;5.05;2.97;;;20.00;99.90;;;;;;5041123;28;20030;-78
2021/06/13 07:22:52;;;;;;;5.88;3.20;;;19.90;99.90;;;;;;5037639;28;20049;-78
2021/06/13 07:25:18;;;;;;;4.38;2.85;;;20.20;99.90;;;;;;5036744;28;20100;-77
2021/06/13 07:27:44;;;;;;;2.97;2.50;;;20.00;99.90;;;;;;5031722;28;20392;-78
2021/06/13 07:30:12;;;;;;;5.68;2.90;;;20.30;99.90;;;;;;5046908;28;20443;-78
2021/06/13 07:32:38;;;;;;;4.32;2.67;;;19.70;99.90;;;;;;5036448;28;20076;-77
2021/06/13 07:35:08;;;;;;;4.85;3.08;;;19.90;99.90;;;;;;5046881;28;20104;-77
2021/06/13 07:37:35;;;;;;;6.22;2.67;;;20.10;99.90;;;;;;5058162;28;20021;-77
2021/06/13 07:40:00;;;;;;;4.20;2.85;;;20.60;99.90;;;;;;5044290;28;20519;-80
2021/06/13 07:42:26;;;;;;;3.88;2.47;;;20.80;99.90;;;;;;5045461;28;20037;-79
2021/06/13 07:44:52;;;;;;;4.38;3.33;;;21.10;99.90;;;;;;5040724;28;20025;-78
2021/06/13 07:47:18;;;;;;;4.40;3.03;;;21.20;99.90;;;;;;5045346;28;20056;-78
2021/06/13 07:49:45;;;;;;;6.25;3.83;;;21.20;99.90;;;;;;5059519;28;20036;-77
2021/06/13 07:52:11;;;;;;;5.13;3.67;;;21.20;99.90;;;;;;5055591;28;20048;-78
2021/06/13 07:54:37;;;;;;;3.17;2.63;;;20.80;99.90;;;;;;5040116;28;20128;-78
2021/06/13 07:57:03;;;;;;;4.28;2.63;;;20.60;99.90;;;;;;5041286;28;20070;-79
2021/06/13 07:59:28;;;;;;;5.70;2.80;;;20.70;99.90;;;;;;5047050;28;20109;-78
2021/06/13 08:01:54;;;;;;;4.80;3.13;;;20.70;99.90;;;;;;5032845;28;20049;-77
2021/06/13 08:04:20;;;;;;;4.85;3.10;;;20.50;99.90;;;;;;5036059;28;20117;-78
2021/06/13 08:06:45;;;;;;;3.80;2.40;;;20.30;99.90;;;;;;5036704;28;20124;-80
2021/06/13 08:09:11;;;;;;;6.05;2.90;;;20.00;99.90;;;;;;5043471;28;20028;-78
2021/06/13 08:11:37;;;;;;;7.18;2.63;;;20.40;99.90;;;;;;5055961;28;20025;-78
2021/06/13 08:14:03;;;;;;;7.75;3.42;;;20.60;99.90;;;;;;5037669;28;20092;-77
2021/06/13 08:16:28;;;;;;;3.75;2.72;;;20.30;99.90;;;;;;5035607;28;20477;-76
2021/06/13 08:18:54;;;;;;;3.50;2.72;;;20.70;99.90;;;;;;5036046;28;20036;-77
2021/06/13 08:21:20;;;;;;;5.10;2.80;;;20.90;99.90;;;;;;5035173;28;20022;-78
2021/06/13 08:23:46;;;;;;;5.95;2.60;;;20.70;99.90;;;;;;5038262;28;20033;-78
2021/06/13 08:26:12;;;;;;;5.85;2.53;;;20.60;99.90;;;;;;5048634;28;20041;-77
2021/06/13 08:28:38;;;;;;;4.65;2.63;;;20.70;99.90;;;;;;5041122;28;20060;-77
2021/06/13 08:31:03;;;;;;;4.53;2.88;;;20.70;99.90;;;;;;5056126;28;20039;-75
2021/06/13 08:33:29;;;;;;;3.47;2.90;;;21.00;99.90;;;;;;5035527;28;20029;-79
2021/06/13 08:35:55;;;;;;;3.88;2.95;;;21.30;99.90;;;;;;5037593;28;20021;-77
2021/06/13 08:38:21;;;;;;;5.00;2.90;;;21.20;99.90;;;;;;5041218;28;20033;-77
2021/06/13 08:40:48;;;;;;;5.18;3.08;;;21.20;99.90;;;;;;5036244;28;20025;-80
2021/06/13 08:43:14;;;;;;;5.25;2.95;;;21.30;99.90;;;;;;5037974;28;20095;-77
2021/06/13 08:45:40;;;;;;;4.53;3.63;;;21.00;99.90;;;;;;5038120;28;20029;-77
2021/06/13 08:48:08;;;;;;;3.88;2.83;;;21.20;99.90;;;;;;5038417;28;20025;-76
2021/06/13 08:50:36;;;;;;;8.75;3.50;;;20.90;99.90;;;;;;5055423;28;20033;-77
2021/06/13 08:53:02;;;;;;;4.65;3.00;;;21.00;99.90;;;;;;5046360;28;20025;-79
2021/06/13 08:55:29;;;;;;;3.75;2.90;;;21.40;99.90;;;;;;5048214;28;20024;-78
2021/06/13 08:57:56;;;;;;;4.38;2.58;;;21.30;99.90;;;;;;5048967;28;20032;-78
2021/06/13 09:00:25;;;;;;;4.63;2.70;;;21.20;99.90;;;;;;5058408;28;20039;-76
2021/06/13 09:02:52;;;;;;;5.57;3.10;;;20.90;99.90;;;;;;5057520;28;20047;-76
2021/06/13 09:05:22;;;;;;;3.35;2.80;;;20.90;99.90;;;;;;5055416;28;20021;-77
2021/06/13 09:07:57;;;;;;;4.30;3.53;;;20.90;99.90;;;;;;5039308;28;20033;-77
2021/06/13 09:10:26;;;;;;;4.95;3.33;;;21.30;99.90;;;;;;5029939;28;20035;-78
2021/06/13 09:13:07;;;;;;;6.05;2.67;;;21.70;99.90;;;;;;5040649;28;20030;-77
2021/06/13 09:15:39;;;;;;;4.85;2.58;;;21.60;99.90;;;;;;5054187;28;20031;-77
2021/06/13 09:18:06;;;;;;;5.05;2.95;;;21.20;99.90;;;;;;5054966;28;20052;-80
2021/06/13 09:20:32;;;;;;;3.38;2.75;;;21.40;99.90;;;;;;5042124;28;20037;-79
2021/06/13 09:23:06;;;;;;;5.32;3.00;;;21.70;99.90;;;;;;5047563;28;20025;-79
2021/06/13 09:25:34;;;;;;;4.75;3.33;;;21.70;99.90;;;;;;5067225;28;20025;-77
2021/06/13 09:28:09;;;;;;;3.72;3.22;;;22.20;99.90;;;;;;5059715;28;20136;-78
2021/06/13 09:30:38;;;;;;;4.75;2.90;;;22.20;99.90;;;;;;5048943;28;20089;-77
2021/06/13 09:33:16;;;;;;;3.72;2.67;;;21.90;99.90;;;;;;5057242;28;20044;-78
2021/06/13 09:35:44;;;;;;;4.20;2.60;;;22.20;99.90;;;;;;5062244;28;20029;-78
2021/06/13 09:38:16;;;;;;;5.53;2.70;;;21.90;99.90;;;;;;5053363;28;20022;-77
2021/06/13 09:40:51;;;;;;;3.88;2.25;;;21.90;99.90;;;;;;5037219;28;20040;-78
2021/06/13 09:43:20;;;;;;;6.95;2.65;;;22.40;99.90;;;;;;5038411;28;20112;-78
2021/06/13 09:45:48;;;;;;;3.72;2.03;;;21.80;99.90;;;;;;5044350;28;20029;-79
2021/06/13 09:48:14;;;;;;;4.82;2.25;;;22.10;99.90;;;;;;5054976;28;20051;-78
2021/06/13 09:50:50;;;;;;;3.53;2.05;;;22.10;99.90;;;;;;5039487;28;20030;-77
2021/06/13 09:53:31;;;;;;;3.55;1.90;;;21.80;99.90;;;;;;5039367;28;20536;-72
2021/06/13 09:56:01;;;;;;;;;;;21.80;99.90;;;;;;5053802;28;20029;-74
2021/06/13 09:58:28;;;;;;;3.58;2.15;;;22.20;99.90;;;;;;5046768;28;19905;-75
2021/06/13 10:00:54;;;;;;;2.75;2.28;;;22.50;99.90;;;;;;5046088;28;20104;-72
2021/06/13 10:03:24;;;;;;;4.38;2.30;;;22.30;99.90;;;;;;5055483;28;20060;-78
2021/06/13 10:05:58;;;;;;;3.45;2.13;;;21.90;99.90;;;;;;5043316;28;20563;-74
2021/06/13 10:08:28;;;;;;;3.00;1.95;;;22.30;99.90;;;;;;5016219;28;20152;-73
2021/06/13 10:10:54;;;;;;;3.05;2.13;;;22.40;99.90;;;;;;5048067;28;20057;-76
2021/06/13 10:13:36;;;;;;;4.95;2.28;;;21.90;99.90;;;;;;5056696;28;20025;-71
2021/06/13 10:16:02;;;;;;;3.25;1.92;;;21.90;99.90;;;;;;5076561;28;20024;-74
2021/06/13 10:18:28;;;;;;;2.83;1.92;;;21.80;99.90;;;;;;5048050;28;20025;-74
2021/06/13 10:21:09;;;;;;;4.65;2.17;;;22.10;99.90;;;;;;5050208;28;20025;-76
2021/06/13 10:23:36;;;;;;;4.85;2.05;;;22.10;99.90;;;;;;5015643;28;20403;-74
2021/06/13 10:26:03;;;;;;;3.90;1.80;;;22.40;99.90;;;;;;5045181;28;20029;-73
2021/06/13 10:28:29;;;;;;;2.78;1.92;;;22.40;99.90;;;;;;5042426;28;20055;-73
2021/06/13 10:30:56;;;;;;;3.17;2.03;;;22.00;99.90;;;;;;5045882;28;20087;-72
2021/06/13 10:33:23;;;;;;;3.97;2.00;;;22.40;99.90;;;;;;5065956;28;20032;-73
2021/06/13 10:35:50;;;;;;;3.63;2.25;;;22.70;99.90;;;;;;5065795;28;20104;-74
2021/06/13 10:38:15;;;;;;;2.70;1.70;;;22.70;99.90;;;;;;5039013;28;20025;-74
2021/06/13 10:40:42;;;;;;;2.28;1.75;;;22.70;99.90;;;;;;5037885;28;20091;-79
2021/06/13 10:43:08;;;;;;;3.20;1.70;;;22.80;99.90;;;;;;5047863;28;20029;-79
2021/06/13 10:45:34;;;;;;;2.63;1.80;;;22.80;99.90;;;;;;5062053;28;20459;-77
2021/06/13 10:48:08;;;;;;;2.80;1.75;;;22.80;93.60;;;;;;5060325;28;20028;-77
2021/06/13 10:50:35;;;;;;;1.90;1.70;;;22.40;91.40;;;;;;5060834;28;20029;-77
2021/06/13 10:53:02;;;;;;;2.97;1.70;;;21.70;91.40;;;;;;5059597;28;20021;-77
2021/06/13 10:55:46;;;;;;;5.13;1.60;;;21.80;93.00;;;;;;5061263;28;20391;-77
2021/06/13 10:58:56;;;;;;;2.97;2.00;;;22.50;91.20;;;;;;5043051;28;20057;-77
2021/06/13 11:01:26;;;;;;;5.18;2.15;;;22.80;93.70;;;;;;5042838;28;20022;-77
2021/06/13 11:04:06;;;;;;;4.50;2.00;;;22.90;95.40;;;;;;5060683;28;20032;-76
2021/06/13 11:06:45;;;;;;;4.63;2.22;;;23.00;97.00;;;;;;5042346;28;20021;-78
2021/06/13 11:09:13;;;;;;;2.67;1.77;;;22.90;91.60;;;;;;5062220;28;20020;-77
2021/06/13 11:11:41;;;;;;;2.92;1.85;;;22.80;89.20;;;;;;5053186;28;20083;-77
2021/06/13 11:14:27;;;;;;;5.03;1.90;;;22.70;94.80;;;;;;5040908;28;20083;-78
2021/06/13 11:16:54;;;;;;;3.97;2.25;;;22.40;88.60;;;;;;5050032;28;20081;-75
2021/06/13 11:19:30;;;;;;;1.67;1.58;;;22.20;83.00;;;;;;5066842;28;20017;-74
2021/06/13 11:22:18;;;;;;;2.05;1.52;;;22.40;86.80;;;;;;5063424;28;20021;-75
2021/06/13 11:24:52;;;;;;;2.50;1.30;;;22.60;59.30;;;;;;5050919;28;20105;-76
2021/06/13 11:27:18;;;;;;;4.70;1.50;;;22.90;47.50;;;;;;5053160;28;20025;-74
2021/06/13 11:29:54;;;;;;;3.75;1.52;;;22.90;43.70;;;;;;5048533;28;20030;-77
2021/06/13 11:32:50;;;;;;;1.50;1.20;;;23.40;26.00;;;;;;5040675;28;20025;-76
2021/06/13 11:35:36;;;;;;;1.90;1.33;;;23.50;26.80;;;;;;5048733;28;20063;-76
2021/06/13 11:38:14;;;;;;;4.88;2.13;;;22.90;42.80;;;;;;5060934;28;20070;-77
2021/06/13 11:40:47;;;;;;;3.63;1.63;;;22.40;42.10;;;;;;5053569;28;20029;-77
2021/06/13 11:43:21;;;;;;;3.55;1.70;;;22.50;49.10;;;;;;5053819;28;20021;-78
2021/06/13 11:45:55;;;;;;;2.72;1.70;;;22.80;49.40;;;;;;5057945;28;20067;-76
2021/06/13 11:48:25;;;;;;;2.33;1.85;;;22.60;46.90;;;;;;5063395;28;20037;-77
2021/06/13 11:51:11;;;;;;;3.97;1.95;;;22.80;46.20;;;;;;5054202;28;20500;-77
2021/06/13 11:54:01;;;;;;;2.72;1.75;;;23.30;46.30;;;;;;5016529;28;20022;-75
2021/06/13 11:56:44;;;;;;;2.50;1.58;;;23.10;42.30;;;;;;5019635;28;20029;-74
2021/06/13 11:59:15;;;;;;;2.78;1.88;;;23.20;40.60;;;;;;5035557;28;20026;-75
2021/06/13 12:01:41;;;;;;;;;;;23.20;34.50;;;;;;5039505;28;20025;-77
2021/06/13 12:04:11;;;;;;;3.38;1.50;;;23.60;34.50;;;;;;5037746;28;19909;-77
2021/06/13 12:06:37;;;;;;;2.05;1.40;;;23.90;30.80;;;;;;5040862;28;20110;-76
2021/06/13 12:09:08;;;;;;;1.80;1.10;;;24.00;26.60;;;;;;5038318;28;20028;-74
2021/06/13 12:11:51;;;;;;;3.25;1.55;;;24.30;27.20;;;;;;5038318;28;20021;-77
2021/06/13 12:14:34;;;;;;;2.40;1.42;;;23.80;29.60;;;;;;5038936;28;20036;-79
2021/06/13 12:17:20;;;;;;;2.08;1.20;;;24.10;30.40;;;;;;5048717;28;20049;-73
2021/06/13 12:19:46;;;;;;;3.45;1.85;;;23.60;27.80;;;;;;5045954;28;20060;-75
2021/06/13 12:27:29;;;;;;;1.63;1.20;;;23.70;23.10;;;;;;5041103;28;20056;-76
2021/06/13 12:29:57;;;;;;;2.78;1.23;;;23.80;18.40;;;;;;5042221;28;20026;-78
2021/06/13 12:32:24;;;;;;;2.72;1.30;;;23.80;18.70;;;;;;5043857;28;20033;-76
2021/06/13 12:34:53;;;;;;;3.00;1.00;;;24.20;19.20;;;;;;5042478;28;20075;-75
2021/06/13 12:37:23;;;;;;;7.30;1.45;;;23.90;18.40;;;;;;5042375;28;20025;-77
2021/06/13 12:39:58;;;;;;;2.28;1.27;;;24.00;15.40;;;;;;5042485;28;20032;-78
2021/06/13 12:42:24;;;;;;;3.30;1.80;;;24.00;14.20;;;;;;5040296;28;20032;-76
2021/06/13 12:45:15;;;;;;;3.13;1.50;;;24.00;15.00;;;;;;5041324;28;20377;-77
2021/06/13 12:47:44;;;;;;;2.03;1.40;;;23.80;19.50;;;;;;5034351;28;20034;-76
2021/06/13 12:50:19;;;;;;;4.82;2.55;;;24.00;18.90;;;;;;5039448;28;20065;-78
2021/06/13 12:52:49;;;;;;;1.88;1.45;;;24.20;11.20;;;;;;5040111;28;20017;-78
2021/06/13 12:55:15;;;;;;;3.17;1.48;;;24.20;11.30;;;;;;5038979;28;20076;-76
2021/06/13 12:57:44;;;;;;;3.35;1.27;;;24.50;13.30;;;;;;5040346;28;20460;-76
2021/06/13 13:00:10;;;;;;;1.98;1.00;;;24.20;13.50;;;;;;5039751;28;20053;-76
2021/06/13 13:02:36;;;;;;;2.25;1.30;;;24.00;11.90;;;;;;5040595;28;20121;-76